RYR52Y ELLX-EIDW
Flight info
| Callsign | RYR52Y |
|---|---|
| Flight time | N/A |
| Altitude | 38000 |
| Route | DIK5X/24 DIK N852 TERLA L608 DENUT L610 KOPUL Q60 OKSAW DCT TEWXI DCT LANON L18 ABLIN ABLIN4L |
| Aircraft | B738/M-SDE2E3FGHIRWXY/LB1 |
Departure
| Time | N/A |
|---|---|
| Airport | Luxembourg-Findel International Airport (ELLX) |
Arrival
| Time | 2026-05-03 20:22 |
|---|---|
| Airport | Dublin Airport (EIDW) |
| Time | Latitude | Longitude | Altitude | Speed | Heading |
|---|---|---|---|---|---|
| 2026-05-03 20:15 | 53.46797 | -6.80952 | 4012 ft | 224 kts | 93° |
| 2026-05-03 20:15 | 53.46641 | -6.78370 | 4004 ft | 225 kts | 93° |
| 2026-05-03 20:15 | 53.46483 | -6.75763 | 3997 ft | 224 kts | 93° |
| 2026-05-03 20:15 | 53.46327 | -6.73168 | 4001 ft | 223 kts | 93° |
| 2026-05-03 20:16 | 53.46172 | -6.70574 | 4012 ft | 225 kts | 93° |
| 2026-05-03 20:16 | 53.46017 | -6.67962 | 3997 ft | 225 kts | 93° |
| 2026-05-03 20:16 | 53.45861 | -6.65344 | 4000 ft | 224 kts | 93° |
| 2026-05-03 20:16 | 53.45707 | -6.62735 | 3995 ft | 224 kts | 93° |
| 2026-05-03 20:17 | 53.45554 | -6.60144 | 3970 ft | 221 kts | 93° |
| 2026-05-03 20:17 | 53.45403 | -6.57555 | 3756 ft | 224 kts | 93° |
| 2026-05-03 20:17 | 53.45252 | -6.54988 | 3477 ft | 213 kts | 93° |
| 2026-05-03 20:17 | 53.45114 | -6.52631 | 3194 ft | 194 kts | 92° |
| 2026-05-03 20:18 | 53.44988 | -6.50455 | 2927 ft | 180 kts | 92° |
| 2026-05-03 20:18 | 53.44873 | -6.48469 | 2691 ft | 165 kts | 92° |
| 2026-05-03 20:18 | 53.44768 | -6.46640 | 2478 ft | 150 kts | 92° |
| 2026-05-03 20:18 | 53.44672 | -6.44958 | 2318 ft | 142 kts | 91° |
| 2026-05-03 20:19 | 53.44580 | -6.43340 | 2102 ft | 137 kts | 91° |
| 2026-05-03 20:19 | 53.44490 | -6.41766 | 1915 ft | 133 kts | 91° |
| 2026-05-03 20:19 | 53.44403 | -6.40220 | 1724 ft | 135 kts | 92° |
| 2026-05-03 20:19 | 53.44314 | -6.38640 | 1543 ft | 136 kts | 92° |
| 2026-05-03 20:20 | 53.44223 | -6.37053 | 1368 ft | 137 kts | 91° |
| 2026-05-03 20:20 | 53.44135 | -6.35483 | 1160 ft | 136 kts | 93° |
| 2026-05-03 20:20 | 53.44045 | -6.33903 | 966 ft | 136 kts | 92° |
| 2026-05-03 20:20 | 53.43956 | -6.32334 | 799 ft | 135 kts | 92° |
| 2026-05-03 20:21 | 53.43873 | -6.30766 | 578 ft | 134 kts | 91° |
| 2026-05-03 20:21 | 53.43785 | -6.29201 | 403 ft | 135 kts | 92° |
| 2026-05-03 20:21 | 53.43697 | -6.27627 | 225 ft | 135 kts | 92° |
| 2026-05-03 20:21 | 53.43623 | -6.26313 | 227 ft | 84 kts | 95° |
| 2026-05-03 20:22 | 53.43561 | -6.25799 | 221 ft | 23 kts | 150° |
| 2026-05-03 20:22 | 53.43496 | -6.25749 | 220 ft | 7 kts | 156° |
| 2026-05-03 20:22 | 53.43441 | -6.25710 | 219 ft | 11 kts | 156° |
| 2026-05-03 20:22 | 53.43354 | -6.25647 | 218 ft | 16 kts | 157° |
| 2026-05-03 20:23 | 53.43262 | -6.25593 | 220 ft | 12 kts | 167° |
| 2026-05-03 20:23 | 53.43216 | -6.25567 | 222 ft | 1 kts | 160° |
| 2026-05-03 20:23 | 53.43205 | -6.25562 | 222 ft | 0 kts | 161° |
| 2026-05-03 20:23 | 53.43198 | -6.25551 | 222 ft | 5 kts | 138° |
| 2026-05-03 20:24 | 53.43191 | -6.25464 | 220 ft | 11 kts | 73° |
| 2026-05-03 20:24 | 53.43217 | -6.25349 | 221 ft | 9 kts | 69° |
| 2026-05-03 20:24 | 53.43229 | -6.25261 | 220 ft | 8 kts | 82° |
| 2026-05-03 20:24 | 53.43227 | -6.25167 | 220 ft | 8 kts | 92° |
| 2026-05-03 20:25 | 53.43224 | -6.25101 | 220 ft | 10 kts | 94° |
| 2026-05-03 20:25 | 53.43215 | -6.24936 | 221 ft | 18 kts | 95° |
| 2026-05-03 20:25 | 53.43204 | -6.24739 | 218 ft | 12 kts | 96° |
| 2026-05-03 20:25 | 53.43196 | -6.24603 | 218 ft | 12 kts | 95° |
| 2026-05-03 20:26 | 53.43179 | -6.24492 | 220 ft | 7 kts | 130° |
| 2026-05-03 20:26 | 53.43147 | -6.24478 | 222 ft | 6 kts | 180° |
| 2026-05-03 20:26 | 53.43117 | -6.24481 | 219 ft | 3 kts | 184° |
| 2026-05-03 20:26 | 53.43111 | -6.24481 | 217 ft | 0 kts | 184° |
| 2026-05-03 20:35 | 53.44348 | -6.39258 | 1621 ft | 126 kts | 91° |